createdAt,value
2022-08-03T00:01:45.078Z,94558.13
2022-08-03T00:04:13.376Z,94558.81
2022-08-03T00:06:41.389Z,94565.09
2022-08-03T00:09:11.131Z,94562.94
2022-08-03T00:11:39.561Z,94550.09
2022-08-03T00:14:08.323Z,94558.34
2022-08-03T00:16:36.814Z,94554.44
2022-08-03T00:19:05.124Z,94553.84
2022-08-03T00:21:33.127Z,94548.81
2022-08-03T00:24:01.672Z,94558.34
2022-08-03T00:26:31.808Z,94556.72
2022-08-03T00:28:59.817Z,94554.09
2022-08-03T00:31:51.657Z,94552.97
2022-08-03T00:34:15.781Z,94553.28
2022-08-03T00:36:43.734Z,94550.88
2022-08-03T00:39:11.700Z,94548.16
2022-08-03T00:41:43.271Z,94547.13
2022-08-03T00:44:11.256Z,94552.41
2022-08-03T00:46:39.195Z,94545.16
2022-08-03T00:49:07.238Z,94548.47
2022-08-03T00:51:35.368Z,94546.66
2022-08-03T00:54:03.398Z,94547.44
2022-08-03T00:56:31.504Z,94548.72
2022-08-03T00:59:01.543Z,94542.25
2022-08-03T01:01:32.378Z,94551.66
2022-08-03T01:04:03.222Z,94545.91
2022-08-03T01:06:42.611Z,94542.00
2022-08-03T01:09:16.447Z,94541.28
2022-08-03T01:12:00.165Z,94528.31
2022-08-03T01:14:35.753Z,94535.28
2022-08-03T01:17:11.109Z,94524.72
2022-08-03T01:19:50.879Z,94526.44
2022-08-03T01:22:53.063Z,94518.84
2022-08-03T01:25:36.478Z,94514.03
2022-08-03T01:28:28.444Z,94511.31
2022-08-03T01:31:01.385Z,94517.63
2022-08-03T01:33:36.324Z,94518.44
2022-08-03T01:36:08.595Z,94515.88
2022-08-03T01:38:40.755Z,94518.25
2022-08-03T01:41:13.285Z,94522.47
2022-08-03T01:44:28.304Z,94522.47
2022-08-03T01:46:34.861Z,94529.28
2022-08-03T01:49:09.471Z,94525.53
2022-08-03T01:51:56.713Z,94527.25
2022-08-03T01:54:28.251Z,94519.00
2022-08-03T01:56:59.674Z,94519.19
2022-08-03T01:59:30.220Z,94520.06
2022-08-03T02:02:15.511Z,94512.81
2022-08-03T02:04:51.769Z,94518.31
2022-08-03T02:07:21.088Z,94521.72
2022-08-03T02:09:52.660Z,94526.56
2022-08-03T02:12:22.339Z,94518.06
2022-08-03T02:14:51.797Z,94516.84
2022-08-03T02:17:39.760Z,94516.59
2022-08-03T02:20:12.642Z,94522.53
2022-08-03T02:22:42.237Z,94512.03
2022-08-03T02:25:11.611Z,94511.56
2022-08-03T02:27:44.253Z,94509.19
2022-08-03T02:30:14.557Z,94501.94
2022-08-03T02:32:50.193Z,94503.53
2022-08-03T02:35:22.245Z,94502.06
2022-08-03T02:37:54.286Z,94507.56
2022-08-03T02:40:26.805Z,94509.41
2022-08-03T02:42:59.345Z,94501.44
2022-08-03T02:45:29.143Z,94504.47
2022-08-03T02:48:03.139Z,94502.06
2022-08-03T02:50:35.140Z,94500.56
2022-08-03T02:53:04.395Z,94503.19
2022-08-03T02:55:43.126Z,94505.22
2022-08-03T02:58:15.250Z,94509.91
2022-08-03T03:00:46.137Z,94510.13
2022-08-03T03:03:16.904Z,94503.19
2022-08-03T03:05:54.774Z,94505.97
2022-08-03T03:08:28.245Z,94512.25
2022-08-03T03:10:59.306Z,94502.31
2022-08-03T03:13:29.324Z,94518.88
2022-08-03T03:16:00.928Z,94519.09
2022-08-03T03:18:33.327Z,94520.16
2022-08-03T03:21:03.873Z,94520.78
2022-08-03T03:23:33.057Z,94529.50
2022-08-03T03:26:02.603Z,94528.47
2022-08-03T03:28:31.722Z,94529.50
2022-08-03T03:31:00.685Z,94529.72
2022-08-03T03:33:30.194Z,94532.78
2022-08-03T03:35:59.844Z,94539.19
2022-08-03T03:38:28.629Z,94530.75
2022-08-03T03:40:57.180Z,94527.91
2022-08-03T03:43:25.868Z,94535.94
2022-08-03T03:45:55.132Z,94538.41
2022-08-03T03:48:23.112Z,94538.56
2022-08-03T03:50:52.452Z,94538.13
2022-08-03T03:53:20.510Z,94541.94
2022-08-03T03:55:59.019Z,94543.91
2022-08-03T03:58:30.325Z,94547.06
2022-08-03T04:00:58.397Z,94543.03
2022-08-03T04:03:26.472Z,94537.03
2022-08-03T04:06:13.188Z,94540.84
2022-08-03T04:08:58.931Z,94541.56
2022-08-03T04:11:30.160Z,94537.78
2022-08-03T04:14:04.156Z,94541.38
2022-08-03T04:16:35.129Z,94530.03
2022-08-03T04:19:06.556Z,94540.44
2022-08-03T04:21:38.701Z,94544.97
2022-08-03T04:24:09.681Z,94546.13
2022-08-03T04:26:40.719Z,94542.19
2022-08-03T04:29:10.605Z,94546.00
2022-08-03T04:31:41.094Z,94547.38
2022-08-03T04:34:09.393Z,94552.00
2022-08-03T04:36:45.960Z,94543.22
2022-08-03T04:39:17.477Z,94547.81
2022-08-03T04:42:08.242Z,94548.16
2022-08-03T04:44:41.543Z,94561.44
2022-08-03T04:47:09.913Z,94566.06
2022-08-03T04:49:39.421Z,94568.03
2022-08-03T04:52:10.954Z,94567.94
2022-08-03T04:54:42.549Z,94560.97
2022-08-03T04:57:22.096Z,94562.16
2022-08-03T04:59:58.250Z,94578.22
2022-08-03T05:02:31.106Z,94580.53
2022-08-03T05:04:59.872Z,94581.84
2022-08-03T05:07:35.529Z,94580.78
2022-08-03T05:10:15.712Z,94581.38
2022-08-03T05:12:44.860Z,94590.38
2022-08-03T05:15:13.190Z,94594.47
2022-08-03T05:17:41.533Z,94597.59
2022-08-03T05:20:11.027Z,94602.28
2022-08-03T05:22:40.383Z,94602.41
2022-08-03T05:25:09.132Z,94610.22
2022-08-03T05:27:37.043Z,94614.13
2022-08-03T05:30:30.501Z,94609.88
2022-08-03T05:32:54.525Z,94612.31
2022-08-03T05:36:00.449Z,94622.38
2022-08-03T05:38:14.857Z,94620.47
2022-08-03T05:40:57.184Z,94627.47
2022-08-03T05:43:26.129Z,94625.63
2022-08-03T05:46:12.015Z,94624.00
2022-08-03T05:48:41.212Z,94627.94
2022-08-03T05:51:12.118Z,94630.56
2022-08-03T05:53:42.232Z,94623.38
2022-08-03T05:56:14.060Z,94637.34
2022-08-03T05:58:44.550Z,94625.56
2022-08-03T06:01:12.642Z,94626.72
2022-08-03T06:03:40.838Z,94629.91
2022-08-03T06:06:09.208Z,94636.78
2022-08-03T06:08:37.250Z,94640.50
2022-08-03T06:11:06.659Z,94640.97
2022-08-03T06:13:35.197Z,94638.41
2022-08-03T06:16:03.257Z,94645.88
2022-08-03T06:18:31.276Z,94638.38
2022-08-03T06:21:01.608Z,94642.72
2022-08-03T06:23:54.295Z,94644.75
2022-08-03T06:26:25.923Z,94651.31
2022-08-03T06:28:54.921Z,94650.94
2022-08-03T06:31:32.233Z,94652.69
2022-08-03T06:34:34.815Z,94654.00
2022-08-03T06:36:51.119Z,94654.78
2022-08-03T06:39:20.718Z,94650.91
2022-08-03T06:41:53.773Z,94654.28
2022-08-03T06:44:21.742Z,94657.56
2022-08-03T06:46:49.807Z,94659.88
2022-08-03T06:49:17.870Z,94657.91
2022-08-03T06:52:05.655Z,94664.75
2022-08-03T06:54:34.034Z,94651.94
2022-08-03T06:57:03.663Z,94659.44
2022-08-03T07:00:07.822Z,94655.84
2022-08-03T07:02:20.391Z,94659.75
2022-08-03T07:04:48.833Z,94655.19
2022-08-03T07:07:17.465Z,94665.59
2022-08-03T07:09:56.836Z,94656.38
2022-08-03T07:12:28.271Z,94660.22
2022-08-03T07:15:00.921Z,94661.34
2022-08-03T07:17:30.272Z,94661.72
2022-08-03T07:19:58.477Z,94663.56
2022-08-03T07:22:26.927Z,94661.50
2022-08-03T07:24:54.984Z,94663.22
2022-08-03T07:27:22.977Z,94664.41
2022-08-03T07:29:52.284Z,94672.41
2022-08-03T07:32:20.562Z,94664.28
2022-08-03T07:34:48.647Z,94672.66
2022-08-03T07:37:16.630Z,94674.63
2022-08-03T07:39:44.729Z,94669.72
2022-08-03T07:42:12.793Z,94672.22
2022-08-03T07:44:40.930Z,94668.31
2022-08-03T07:47:10.558Z,94676.09
2022-08-03T07:49:50.627Z,94667.69
2022-08-03T07:52:36.463Z,94659.75
2022-08-03T07:55:04.846Z,94669.94
2022-08-03T07:57:32.839Z,94670.88
2022-08-03T08:00:02.271Z,94673.38
2022-08-03T08:02:32.120Z,94673.09
2022-08-03T08:05:05.282Z,94671.88
2022-08-03T08:07:33.875Z,94672.16
2022-08-03T08:10:01.861Z,94675.63
2022-08-03T08:12:30.016Z,94680.44
2022-08-03T08:14:59.245Z,94680.78
2022-08-03T08:17:27.232Z,94675.81
2022-08-03T08:19:56.638Z,94677.97
2022-08-03T08:22:30.521Z,94677.16
2022-08-03T08:25:01.246Z,94672.91
2022-08-03T08:28:22.274Z,94673.75
2022-08-03T08:30:20.207Z,94675.66
2022-08-03T08:32:48.667Z,94672.78
2022-08-03T08:35:19.171Z,94671.75
2022-08-03T08:37:51.192Z,94671.22
2022-08-03T08:40:22.399Z,94670.19
2022-08-03T08:42:58.518Z,94664.09
2022-08-03T08:45:27.901Z,94667.31
2022-08-03T08:48:01.831Z,94666.25
2022-08-03T08:50:33.452Z,94664.34
2022-08-03T08:53:04.361Z,94663.56
2022-08-03T08:55:56.878Z,94657.19
2022-08-03T08:58:22.939Z,94652.63
2022-08-03T09:00:52.137Z,94655.28
2022-08-03T09:03:29.258Z,94644.91
2022-08-03T09:06:00.798Z,94648.63
2022-08-03T09:08:29.744Z,94657.69
2022-08-03T09:10:57.782Z,94647.84
2022-08-03T09:13:26.276Z,94646.16
2022-08-03T09:16:13.017Z,94648.53
2022-08-03T09:18:42.466Z,94649.00
2022-08-03T09:21:31.589Z,94642.88
2022-08-03T09:24:03.798Z,94648.22
2022-08-03T09:26:33.302Z,94651.41
2022-08-03T09:29:09.356Z,94650.06
2022-08-03T09:31:43.246Z,94646.81
2022-08-03T09:34:13.856Z,94644.97
2022-08-03T09:36:46.615Z,94639.88
2022-08-03T09:39:16.752Z,94644.63
2022-08-03T09:41:47.011Z,94642.41
2022-08-03T09:44:25.296Z,94638.13
2022-08-03T09:46:56.962Z,94649.50
2022-08-03T09:49:25.586Z,94645.13
2022-08-03T09:52:32.221Z,94640.53
2022-08-03T09:54:44.528Z,94645.84
2022-08-03T09:57:23.170Z,94645.53
2022-08-03T10:00:01.889Z,94639.84
2022-08-03T10:02:32.849Z,94646.28
2022-08-03T10:05:00.889Z,94647.28
2022-08-03T10:07:30.238Z,94632.06
2022-08-03T10:10:30.495Z,94627.50
2022-08-03T10:12:48.876Z,94626.69
2022-08-03T10:16:23.238Z,94625.72
2022-08-03T10:18:06.154Z,94627.41
2022-08-03T10:20:39.420Z,94622.16
2022-08-03T10:23:09.743Z,94627.94
2022-08-03T10:25:40.725Z,94627.81
2022-08-03T10:28:14.233Z,94617.69
2022-08-03T10:30:44.155Z,94617.56
2022-08-03T10:33:50.773Z,94615.72
2022-08-03T10:36:09.594Z,94615.63
2022-08-03T10:38:46.137Z,94613.16
2022-08-03T10:41:14.809Z,94612.41
2022-08-03T10:43:49.616Z,94612.91
2022-08-03T10:46:20.265Z,94603.31
2022-08-03T10:48:50.705Z,94604.31
2022-08-03T10:51:18.761Z,94610.91
2022-08-03T10:53:50.158Z,94607.47
2022-08-03T10:57:13.539Z,94607.25
2022-08-03T11:00:05.166Z,94603.47
2022-08-03T11:03:10.240Z,94599.41
2022-08-03T11:05:42.765Z,94609.91
2022-08-03T11:08:31.668Z,94601.19
2022-08-03T11:11:04.592Z,94601.84
2022-08-03T11:13:33.984Z,94604.00
2022-08-03T11:16:21.831Z,94605.84
2022-08-03T11:18:58.220Z,94594.44
2022-08-03T11:22:01.464Z,94587.59
2022-08-03T11:25:00.634Z,94583.97
2022-08-03T11:27:38.861Z,94583.63
2022-08-03T11:30:09.555Z,94583.53
2022-08-03T11:32:54.504Z,94571.88
2022-08-03T11:35:24.880Z,94577.59
2022-08-03T11:38:13.072Z,94576.69
2022-08-03T11:40:44.427Z,94574.88
2022-08-03T11:43:48.800Z,94568.31
2022-08-03T11:46:28.737Z,94564.22
2022-08-03T11:49:09.774Z,94572.56
2022-08-03T11:51:40.086Z,94574.59
2022-08-03T11:54:08.611Z,94573.78
2022-08-03T11:56:46.619Z,94571.13
2022-08-03T11:59:21.572Z,94564.91
2022-08-03T12:01:50.538Z,94562.66
2022-08-03T12:04:18.570Z,94569.31
2022-08-03T12:07:00.367Z,94559.06
2022-08-03T12:09:28.360Z,94553.91
2022-08-03T12:11:59.659Z,94558.63
2022-08-03T12:14:50.842Z,94554.75
2022-08-03T12:17:19.116Z,94557.06
2022-08-03T12:19:47.573Z,94554.00
2022-08-03T12:22:18.773Z,94534.44
2022-08-03T12:24:47.803Z,94553.44
2022-08-03T12:27:25.445Z,94544.28
2022-08-03T12:29:58.821Z,94552.31
2022-08-03T12:32:27.838Z,94551.25
2022-08-03T12:35:00.190Z,94542.69
2022-08-03T12:37:28.747Z,94543.47
2022-08-03T12:40:02.660Z,94543.31
2022-08-03T12:42:35.574Z,94541.38
2022-08-03T12:45:27.164Z,94540.47
2022-08-03T12:47:57.248Z,94545.88
2022-08-03T12:50:27.229Z,94540.94
2022-08-03T12:52:56.109Z,94544.03
2022-08-03T12:55:24.923Z,94544.66
2022-08-03T12:57:52.940Z,94539.22
2022-08-03T13:01:16.360Z,94528.50
2022-08-03T13:04:39.015Z,94534.72
2022-08-03T13:07:14.202Z,94523.59
2022-08-03T13:09:44.338Z,94520.72
2022-08-03T13:12:14.390Z,94509.13
2022-08-03T13:14:43.215Z,94516.31
2022-08-03T13:17:11.693Z,94506.00
2022-08-03T13:19:41.158Z,94507.63
2022-08-03T13:22:15.312Z,94519.84
2022-08-03T13:24:44.074Z,94520.97
2022-08-03T13:28:01.305Z,94516.59
2022-08-03T13:30:01.565Z,94518.28
2022-08-03T13:32:29.563Z,94513.03
2022-08-03T13:34:57.634Z,94520.16
2022-08-03T13:37:27.735Z,94517.50
2022-08-03T13:40:00.692Z,94524.06
2022-08-03T13:42:32.665Z,94513.91
2022-08-03T13:45:01.299Z,94518.38
2022-08-03T13:47:29.591Z,94521.97
2022-08-03T13:50:00.818Z,94520.16
2022-08-03T13:52:33.137Z,94514.41
2022-08-03T13:55:01.620Z,94510.94
2022-08-03T13:58:11.928Z,94512.88
2022-08-03T14:00:26.462Z,94517.69
2022-08-03T14:03:04.057Z,94516.69
2022-08-03T14:05:35.770Z,94526.69
2022-08-03T14:08:06.758Z,94523.34
2022-08-03T14:10:36.835Z,94511.44
2022-08-03T14:13:05.905Z,94516.19
2022-08-03T14:15:38.121Z,94518.44
2022-08-03T14:18:15.486Z,94520.16
2022-08-03T14:20:50.168Z,94523.41
2022-08-03T14:23:23.732Z,94512.22
2022-08-03T14:25:53.129Z,94510.84
2022-08-03T14:28:23.660Z,94509.59
2022-08-03T14:30:52.689Z,94508.97
2022-08-03T14:33:21.217Z,94508.41
2022-08-03T14:35:49.828Z,94513.09
2022-08-03T14:38:18.224Z,94503.56
2022-08-03T14:40:48.254Z,94505.09
2022-08-03T14:43:18.004Z,94497.59
2022-08-03T14:45:46.230Z,94510.09
2022-08-03T14:50:29.465Z,94497.41
2022-08-03T14:51:02.774Z,94512.09
2022-08-03T14:53:31.023Z,94505.38
2022-08-03T14:56:00.344Z,94503.00
2022-08-03T14:58:28.354Z,94506.34
2022-08-03T15:00:57.141Z,94520.63
2022-08-03T15:03:25.997Z,94514.72
2022-08-03T15:05:56.334Z,94517.88
2022-08-03T15:08:25.829Z,94521.38
2022-08-03T15:10:54.464Z,94531.56
2022-08-03T15:13:25.329Z,94516.94
2022-08-03T15:15:53.476Z,94529.38
2022-08-03T15:18:21.960Z,94504.59
2022-08-03T15:20:50.920Z,94539.72
2022-08-03T15:23:19.899Z,94533.38
2022-08-03T15:26:03.759Z,94545.06
2022-08-03T15:28:38.266Z,94528.22
2022-08-03T15:31:07.437Z,94554.16
2022-08-03T15:33:35.515Z,94552.81
2022-08-03T15:36:04.252Z,94564.28
2022-08-03T15:38:32.337Z,94575.13
2022-08-03T15:41:00.386Z,94563.44
2022-08-03T15:43:28.408Z,94555.56
2022-08-03T15:46:27.855Z,94552.22
2022-08-03T15:48:48.709Z,94558.94
2022-08-03T15:51:17.416Z,94551.50
2022-08-03T15:53:45.597Z,94561.06
2022-08-03T15:56:18.431Z,94571.09
2022-08-03T15:59:04.043Z,94549.69
2022-08-03T16:01:36.787Z,94533.28
2022-08-03T16:04:05.089Z,94549.63
2022-08-03T16:06:35.733Z,94536.19
2022-08-03T16:09:23.386Z,94552.25
2022-08-03T16:11:54.426Z,94548.94
2022-08-03T16:14:32.629Z,94555.63
2022-08-03T16:17:10.248Z,94554.44
2022-08-03T16:19:38.234Z,94565.03
2022-08-03T16:22:06.812Z,94568.47
2022-08-03T16:24:34.928Z,94559.91
2022-08-03T16:27:05.889Z,94553.25
2022-08-03T16:29:40.858Z,94544.97
2022-08-03T16:32:10.336Z,94551.72
2022-08-03T16:34:39.723Z,94560.00
2022-08-03T16:37:36.634Z,94564.97
2022-08-03T16:39:57.096Z,94563.25
2022-08-03T16:42:25.075Z,94540.88
2022-08-03T16:44:53.127Z,94531.19
2022-08-03T16:47:23.030Z,94509.00
2022-08-03T16:49:54.429Z,94503.78
2022-08-03T16:52:24.672Z,94502.19
2022-08-03T16:54:53.736Z,94505.09
2022-08-03T16:57:58.153Z,94503.00
2022-08-03T17:00:33.874Z,94502.22
2022-08-03T17:03:18.893Z,94504.16
2022-08-03T17:05:49.828Z,94505.81
2022-08-03T17:08:26.782Z,94507.44
2022-08-03T17:10:56.677Z,94509.38
2022-08-03T17:13:27.813Z,94509.34
2022-08-03T17:16:09.574Z,94522.94
2022-08-03T17:18:42.218Z,94523.25
2022-08-03T17:21:17.785Z,94510.03
2022-08-03T17:23:50.667Z,94509.91
2022-08-03T17:26:22.275Z,94509.19
2022-08-03T17:28:58.154Z,94519.97
2022-08-03T17:31:31.269Z,94525.78
2022-08-03T17:34:04.483Z,94531.56
2022-08-03T17:37:03.220Z,94532.22
2022-08-03T17:39:48.359Z,94523.91
2022-08-03T17:42:29.650Z,94519.41
2022-08-03T17:45:03.848Z,94516.63
2022-08-03T17:47:42.304Z,94521.91
2022-08-03T17:50:26.141Z,94531.84
2022-08-03T17:53:07.402Z,94523.59
2022-08-03T17:55:57.278Z,94526.84
2022-08-03T17:58:43.636Z,94529.25
2022-08-03T18:02:05.699Z,94512.19
2022-08-03T18:07:19.519Z,94502.59
2022-08-03T18:10:03.583Z,94507.56
2022-08-03T18:12:45.179Z,94495.22
2022-08-03T18:15:21.941Z,94498.34
2022-08-03T18:17:55.145Z,94503.88
2022-08-03T18:20:32.912Z,94499.63
2022-08-03T18:23:08.430Z,94498.50
2022-08-03T18:25:49.170Z,94506.13
2022-08-03T18:28:23.276Z,94511.41
2022-08-03T18:30:54.216Z,94509.97
2022-08-03T18:34:18.688Z,94508.31
2022-08-03T18:36:17.352Z,94510.94
2022-08-03T18:38:51.901Z,94519.28
2022-08-03T18:41:33.282Z,94520.06
2022-08-03T18:44:08.719Z,94534.31
2022-08-03T18:47:07.525Z,94536.66
2022-08-03T18:49:59.895Z,94531.06
2022-08-03T18:52:37.357Z,94528.56
2022-08-03T18:55:20.309Z,94534.50
2022-08-03T18:57:53.481Z,94535.84
2022-08-03T19:00:24.262Z,94539.28
2022-08-03T19:03:05.235Z,94544.22
2022-08-03T19:05:56.468Z,94541.09
2022-08-03T19:08:34.956Z,94544.44
2022-08-03T19:11:09.217Z,94540.97
2022-08-03T19:13:50.512Z,94530.97
2022-08-03T19:16:25.028Z,94542.00
2022-08-03T19:18:55.383Z,94544.41
2022-08-03T19:21:24.153Z,94549.34
2022-08-03T19:23:52.901Z,94544.31
2022-08-03T19:26:31.010Z,94560.00
2022-08-03T19:29:00.276Z,94556.94
2022-08-03T19:31:31.180Z,94549.47
2022-08-03T19:34:04.405Z,94549.25
2022-08-03T19:36:40.558Z,94543.59
2022-08-03T19:39:12.760Z,94553.06
2022-08-03T19:41:47.344Z,94549.38
2022-08-03T19:44:24.251Z,94553.31
2022-08-03T19:46:55.760Z,94556.53
2022-08-03T19:50:06.254Z,94543.31
2022-08-03T19:52:16.932Z,94550.09
2022-08-03T19:54:54.611Z,94551.28
2022-08-03T19:57:27.472Z,94552.63
2022-08-03T19:59:56.782Z,94544.25
2022-08-03T20:02:27.944Z,94541.28
2022-08-03T20:04:59.852Z,94540.78
2022-08-03T20:07:30.775Z,94543.06
2022-08-03T20:09:59.712Z,94529.09
2022-08-03T20:12:38.556Z,94537.03
2022-08-03T20:15:09.245Z,94541.56
2022-08-03T20:17:56.373Z,94540.06
2022-08-03T20:20:28.574Z,94541.00
2022-08-03T20:22:59.497Z,94552.66
2022-08-03T20:25:38.381Z,94550.94
2022-08-03T20:28:13.865Z,94552.66
2022-08-03T20:30:43.865Z,94550.13
2022-08-03T20:33:12.325Z,94554.16
2022-08-03T20:35:49.057Z,94549.81
2022-08-03T20:38:18.824Z,94556.13
2022-08-03T20:40:48.369Z,94561.75
2022-08-03T20:43:20.115Z,94566.78
2022-08-03T20:45:59.826Z,94568.94
2022-08-03T20:48:37.326Z,94572.84
2022-08-03T20:51:20.214Z,94564.44
2022-08-03T20:54:00.324Z,94564.09
2022-08-03T20:56:33.782Z,94566.41
2022-08-03T20:59:05.398Z,94574.50
2022-08-03T21:01:36.115Z,94569.81
2022-08-03T21:04:06.774Z,94572.31
2022-08-03T21:06:39.671Z,94574.09
2022-08-03T21:09:10.061Z,94573.56
2022-08-03T21:11:44.320Z,94580.31
2022-08-03T21:12:56.492Z,94492.47
2022-08-03T21:14:20.924Z,94579.97
2022-08-03T21:16:51.815Z,94575.19
2022-08-03T21:19:22.891Z,94573.28
2022-08-03T21:21:51.541Z,94578.22
2022-08-03T21:24:24.601Z,94584.78
2022-08-03T21:26:55.034Z,94579.06
2022-08-03T21:29:25.114Z,94582.06
2022-08-03T21:31:53.670Z,94583.13
2022-08-03T21:34:22.728Z,94579.22
2022-08-03T21:36:50.829Z,94583.47
2022-08-03T21:39:18.991Z,94587.25
2022-08-03T21:41:47.064Z,94593.09
2022-08-03T21:44:18.193Z,94587.94
2022-08-03T21:47:00.413Z,94593.44
2022-08-03T21:50:07.444Z,94598.72
2022-08-03T21:52:21.583Z,94594.25
2022-08-03T21:54:51.325Z,94594.94
2022-08-03T21:57:23.164Z,94595.94
2022-08-03T21:59:55.484Z,94597.31
2022-08-03T22:02:28.773Z,94595.84
2022-08-03T22:04:59.596Z,94598.03
2022-08-03T22:07:31.322Z,94599.28
2022-08-03T22:10:01.114Z,94602.25
2022-08-03T22:12:31.695Z,94600.28
2022-08-03T22:15:08.412Z,94598.69
2022-08-03T22:17:53.759Z,94596.88
2022-08-03T22:20:23.164Z,94598.72
2022-08-03T22:22:56.557Z,94594.72
2022-08-03T22:25:29.987Z,94593.66
2022-08-03T22:27:59.398Z,94591.81
2022-08-03T22:30:28.145Z,94592.84
2022-08-03T22:32:57.990Z,94593.53
2022-08-03T22:35:28.049Z,94586.88
2022-08-03T22:37:58.461Z,94591.81
2022-08-03T22:40:27.819Z,94591.91
2022-08-03T22:42:56.075Z,94596.94
2022-08-03T22:46:07.736Z,94598.78
2022-08-03T22:48:17.422Z,94593.88
2022-08-03T22:50:46.446Z,94592.81
2022-08-03T22:53:17.884Z,94598.66
2022-08-03T22:55:45.963Z,94602.56
2022-08-03T22:58:16.621Z,94598.31
2022-08-03T23:00:53.751Z,94595.78
2022-08-03T23:04:00.311Z,94592.00
2022-08-03T23:06:19.407Z,94592.91
2022-08-03T23:08:48.647Z,94595.53
2022-08-03T23:11:20.014Z,94597.69
2022-08-03T23:13:53.476Z,94595.66
2022-08-03T23:16:29.298Z,94595.41
2022-08-03T23:19:03.465Z,94591.81
2022-08-03T23:21:53.783Z,94587.09
2022-08-03T23:24:30.566Z,94590.16
2022-08-03T23:26:59.408Z,94588.00
2022-08-03T23:29:27.805Z,94594.16
2022-08-03T23:31:57.440Z,94591.63
2022-08-03T23:34:46.024Z,94596.94
2022-08-03T23:37:15.921Z,94595.34
2022-08-03T23:39:46.004Z,94599.91
2022-08-03T23:42:16.358Z,94593.91
2022-08-03T23:44:45.533Z,94603.03
2022-08-03T23:47:14.016Z,94592.97
2022-08-03T23:49:43.657Z,94596.16
2022-08-03T23:52:18.079Z,94592.38
2022-08-03T23:54:59.280Z,94596.03
2022-08-03T23:57:33.863Z,94598.75
